Sog Xian, China
Current Conditions -  °F | °C
As of 4:50 PM on Wednesday 28 Jan 2015 (Local Time) from VQPR Reporting Station
Clear Clear  
Wind Chill: 63°   Ceiling: Unl
Heat Index: 63°   Visibility: 6mi
Dew Point: 10°   Wind: 20mph
Humidity: 13%   Direction: 160°SSE
Pressure: 29.91"   Gusts: NA
Location:  31.88°N, 93.78°E
Report Text: VQPR 280850Z 16017KT 9999 SKC 17/M12 Q1013 NOSIG
Loading
Personal Weather Stations






























Interactive Weather Map New forecast layout! Learn more

10-Day Weather Forecast

Advertisements
Track Severe Weather on mobile